Time,TemperatureF,DewpointF,PressureIn,WindDirection,WindDirectionDegrees,WindSpeedMPH,WindSpeedGustMPH,Humidity,HourlyPrecipIn,Conditions,Clouds,dailyrainin,SoftwareType,DateUTC
2013-11-08 00:05:00,35.5,28.0,30.22,ESE,114,1.0,-999.0,74,0.00,,,0.00,Wunderground v.1.15,2013-11-08 06:05:00,
2013-11-08 00:15:00,35.6,28.5,30.22,ESE,123,1.0,-999.0,75,0.00,,,0.00,Wunderground v.1.15,2013-11-08 06:15:00,
2013-11-08 00:25:00,35.8,28.6,30.21,SE,132,1.0,-999.0,75,0.00,,,0.00,Wunderground v.1.15,2013-11-08 06:25:00,
2013-11-08 00:30:00,36.2,29.0,30.21,South,169,1.0,-999.0,75,0.00,,,0.00,Wunderground v.1.15,2013-11-08 06:30:00,
2013-11-08 00:40:00,36.9,29.7,30.20,South,169,1.0,-999.0,75,0.00,,,0.00,Wunderground v.1.15,2013-11-08 06:40:00,
2013-11-08 00:45:00,37.4,29.9,30.20,SSE,150,2.0,-999.0,74,0.00,,,0.00,Wunderground v.1.15,2013-11-08 06:45:00,
2013-11-08 00:55:00,38.1,30.2,30.19,East,99,2.0,-999.0,73,0.00,,,0.00,Wunderground v.1.15,2013-11-08 06:55:00,
2013-11-08 01:05:00,38.7,30.4,30.19,ESE,110,2.0,-999.0,72,0.00,,,0.00,Wunderground v.1.15,2013-11-08 07:05:00,
2013-11-08 01:15:00,38.9,30.6,30.18,ESE,120,2.0,-999.0,72,0.00,,,0.00,Wunderground v.1.15,2013-11-08 07:15:00,
2013-11-08 01:25:00,39.2,30.6,30.18,ESE,117,3.0,-999.0,71,0.00,,,0.00,Wunderground v.1.15,2013-11-08 07:25:00,
2013-11-08 01:30:00,39.2,30.9,30.18,SE,127,3.0,-999.0,72,0.00,,,0.00,Wunderground v.1.15,2013-11-08 07:30:00,
2013-11-08 01:40:00,39.2,30.9,30.17,SE,124,2.0,-999.0,72,0.00,,,0.00,Wunderground v.1.15,2013-11-08 07:40:00,
2013-11-08 01:45:00,39.2,30.9,30.17,ESE,113,3.0,-999.0,72,0.00,,,0.00,Wunderground v.1.15,2013-11-08 07:45:00,
2013-11-08 01:55:00,39.1,30.8,30.17,ESE,117,2.0,-999.0,72,0.00,,,0.00,Wunderground v.1.15,2013-11-08 07:55:00,
2013-11-08 02:05:00,39.2,30.9,30.16,SE,143,2.0,-999.0,72,0.00,,,0.00,Wunderground v.1.15,2013-11-08 08:05:00,
2013-11-08 02:15:00,39.2,30.9,30.15,South,176,3.0,-999.0,72,0.00,,,0.00,Wunderground v.1.15,2013-11-08 08:15:00,
2013-11-08 02:25:00,39.5,30.9,30.15,SSE,167,3.0,-999.0,71,0.00,,,0.00,Wunderground v.1.15,2013-11-08 08:25:00,
2013-11-08 02:30:00,39.5,30.9,30.14,ESE,120,3.0,-999.0,71,0.00,,,0.01,Wunderground v.1.15,2013-11-08 08:30:00,
2013-11-08 02:40:00,39.6,31.0,30.13,SE,130,3.0,-999.0,71,0.00,,,0.01,Wunderground v.1.15,2013-11-08 08:40:00,
2013-11-08 02:45:00,39.7,30.7,30.13,ESE,117,3.0,-999.0,70,0.00,,,0.01,Wunderground v.1.15,2013-11-08 08:45:00,
2013-11-08 02:55:00,39.9,30.9,30.12,SE,145,4.0,-999.0,70,0.00,,,0.01,Wunderground v.1.15,2013-11-08 08:55:00,
2013-11-08 03:05:00,39.7,31.1,30.11,SSE,153,3.0,-999.0,71,0.00,,,0.01,Wunderground v.1.15,2013-11-08 09:05:00,
2013-11-08 03:15:00,39.3,31.0,30.10,SE,130,3.0,-999.0,72,0.00,,,0.01,Wunderground v.1.15,2013-11-08 09:15:00,
2013-11-08 03:25:00,39.2,31.3,30.10,ESE,117,3.0,-999.0,73,0.00,,,0.01,Wunderground v.1.15,2013-11-08 09:25:00,
2013-11-08 03:30:00,39.1,31.2,30.09,ESE,103,3.0,-999.0,73,0.00,,,0.01,Wunderground v.1.15,2013-11-08 09:30:00,
2013-11-08 03:40:00,39.0,31.1,30.08,ESE,109,3.0,-999.0,73,0.00,,,0.01,Wunderground v.1.15,2013-11-08 09:40:00,
2013-11-08 03:45:00,38.9,31.3,30.08,SE,146,3.0,-999.0,74,0.00,,,0.01,Wunderground v.1.15,2013-11-08 09:45:00,
2013-11-08 03:55:00,38.8,31.2,30.08,SE,144,2.0,-999.0,74,0.00,,,0.02,Wunderground v.1.15,2013-11-08 09:55:00,
2013-11-08 04:05:00,38.8,31.2,30.06,South,172,3.0,-999.0,74,0.00,,,0.02,Wunderground v.1.15,2013-11-08 10:05:00,
2013-11-08 04:15:00,38.7,31.5,30.06,SSE,157,3.0,-999.0,75,0.00,,,0.02,Wunderground v.1.15,2013-11-08 10:15:00,
2013-11-08 04:25:00,38.7,31.5,30.05,SSE,149,4.0,-999.0,75,0.00,,,0.02,Wunderground v.1.15,2013-11-08 10:25:00,
2013-11-08 04:30:00,38.7,31.5,30.04,SE,134,4.0,-999.0,75,0.00,,,0.02,Wunderground v.1.15,2013-11-08 10:30:00,
2013-11-08 04:40:00,38.4,31.2,30.03,SE,134,5.0,-999.0,75,0.00,,,0.02,Wunderground v.1.15,2013-11-08 10:40:00,
2013-11-08 04:50:00,38.2,31.3,30.02,East,91,4.0,-999.0,76,0.00,,,0.02,Wunderground v.1.15,2013-11-08 10:50:00,
2013-11-08 04:55:00,38.1,31.2,30.02,ESE,122,4.0,-999.0,76,0.00,,,0.02,Wunderground v.1.15,2013-11-08 10:55:00,
2013-11-08 05:05:00,38.0,31.4,30.01,SE,128,3.0,-999.0,77,0.00,,,0.03,Wunderground v.1.15,2013-11-08 11:05:00,
2013-11-08 05:15:00,37.9,31.3,30.00,SSE,148,4.0,-999.0,77,0.00,,,0.03,Wunderground v.1.15,2013-11-08 11:15:00,
2013-11-08 05:25:00,38.0,31.7,30.00,ESE,114,4.0,-999.0,78,0.00,,,0.03,Wunderground v.1.15,2013-11-08 11:25:00,
2013-11-08 05:30:00,38.1,31.8,30.00,SSE,156,4.0,-999.0,78,0.00,,,0.03,Wunderground v.1.15,2013-11-08 11:30:00,
2013-11-08 05:40:00,38.2,31.9,29.99,SE,127,3.0,-999.0,78,0.00,,,0.03,Wunderground v.1.15,2013-11-08 11:40:00,
2013-11-08 05:50:00,38.2,31.9,29.98,SE,134,4.0,-999.0,78,0.00,,,0.03,Wunderground v.1.15,2013-11-08 11:50:00,
2013-11-08 05:55:00,38.2,31.9,29.98,SSE,155,4.0,-999.0,78,0.00,,,0.03,Wunderground v.1.15,2013-11-08 11:55:00,
2013-11-08 06:05:00,38.1,32.2,29.97,SE,127,3.0,-999.0,79,0.00,,,0.03,Wunderground v.1.15,2013-11-08 12:05:00,
2013-11-08 06:15:00,37.9,32.3,29.96,SE,124,3.0,-999.0,80,0.00,,,0.03,Wunderground v.1.15,2013-11-08 12:15:00,
2013-11-08 06:25:00,37.9,32.3,29.96,East,95,3.0,-999.0,80,0.00,,,0.04,Wunderground v.1.15,2013-11-08 12:25:00,
2013-11-08 06:35:00,38.1,32.5,29.95,ESE,105,3.0,-999.0,80,0.00,,,0.04,Wunderground v.1.15,2013-11-08 12:35:00,
2013-11-08 06:45:00,38.3,32.7,29.94,SE,134,3.0,-999.0,80,0.00,,,0.04,Wunderground v.1.15,2013-11-08 12:45:00,
2013-11-08 06:50:00,38.4,32.8,29.94,SSE,165,4.0,-999.0,80,0.00,,,0.04,Wunderground v.1.15,2013-11-08 12:50:00,
2013-11-08 06:55:00,38.4,32.8,29.94,SSE,161,4.0,-999.0,80,0.00,,,0.04,Wunderground v.1.15,2013-11-08 12:55:00,
2013-11-08 07:05:00,38.4,32.8,29.93,SE,134,4.0,-999.0,80,0.00,,,0.04,Wunderground v.1.15,2013-11-08 13:05:00,
2013-11-08 07:15:00,38.4,32.8,29.92,SE,138,4.0,-999.0,80,0.00,,,0.04,Wunderground v.1.15,2013-11-08 13:15:00,
2013-11-08 07:25:00,38.5,32.9,29.92,SE,143,4.0,-999.0,80,0.00,,,0.04,Wunderground v.1.15,2013-11-08 13:25:00,
2013-11-08 07:35:00,38.7,32.7,29.91,SSE,154,5.0,-999.0,79,0.00,,,0.04,Wunderground v.1.15,2013-11-08 13:35:00,
2013-11-08 07:45:00,38.8,32.8,29.90,SSE,148,4.0,-999.0,79,0.00,,,0.04,Wunderground v.1.15,2013-11-08 13:45:00,
2013-11-08 07:50:00,39.0,33.0,29.89,ESE,103,4.0,-999.0,79,0.00,,,0.04,Wunderground v.1.15,2013-11-08 13:50:00,
2013-11-08 07:55:00,39.2,32.9,29.89,South,176,5.0,-999.0,78,0.00,,,0.04,Wunderground v.1.15,2013-11-08 13:55:00,
2013-11-08 08:05:00,39.5,33.2,29.88,SE,135,5.0,-999.0,78,0.00,,,0.04,Wunderground v.1.15,2013-11-08 14:05:00,
2013-11-08 08:15:00,40.2,33.6,29.88,SE,138,5.0,-999.0,77,0.00,,,0.04,Wunderground v.1.15,2013-11-08 14:15:00,
2013-11-08 08:25:00,41.0,34.0,29.88,SSE,158,4.0,-999.0,76,0.00,,,0.04,Wunderground v.1.15,2013-11-08 14:25:00,
2013-11-08 08:35:00,41.2,33.9,29.88,SSE,155,4.0,-999.0,75,0.00,,,0.04,Wunderground v.1.15,2013-11-08 14:35:00,
2013-11-08 08:45:00,40.8,33.8,29.85,SSE,165,5.0,-999.0,76,0.00,,,0.04,Wunderground v.1.15,2013-11-08 14:45:00,
2013-11-08 08:50:00,40.8,33.8,29.85,ESE,112,6.0,-999.0,76,0.00,,,0.04,Wunderground v.1.15,2013-11-08 14:50:00,
2013-11-08 09:00:00,41.1,34.1,29.85,SSW,201,5.0,-999.0,76,0.00,,,0.04,Wunderground v.1.15,2013-11-08 15:00:00,
2013-11-08 09:05:00,41.2,34.2,29.85,SE,139,5.0,-999.0,76,0.00,,,0.04,Wunderground v.1.15,2013-11-08 15:05:00,
2013-11-08 09:15:00,41.7,34.4,29.85,SSW,198,6.0,-999.0,75,0.00,,,0.04,Wunderground v.1.15,2013-11-08 15:15:00,
2013-11-08 09:25:00,42.9,35.2,29.85,SW,214,6.0,-999.0,74,0.00,,,0.04,Wunderground v.1.15,2013-11-08 15:25:00,
2013-11-08 09:35:00,43.5,35.4,29.84,SE,143,7.0,-999.0,73,0.00,,,0.04,Wunderground v.1.15,2013-11-08 15:35:00,
2013-11-08 09:45:00,44.0,35.6,29.84,SE,146,6.0,-999.0,72,0.00,,,0.04,Wunderground v.1.15,2013-11-08 15:45:00,
2013-11-08 09:50:00,44.3,35.5,29.82,SSE,167,6.0,-999.0,71,0.00,,,0.04,Wunderground v.1.15,2013-11-08 15:50:00,
2013-11-08 10:00:00,44.8,36.0,29.81,South,183,7.0,-999.0,71,0.00,,,0.04,Wunderground v.1.15,2013-11-08 16:00:00,
2013-11-08 10:05:00,45.3,36.1,29.81,SE,131,7.0,-999.0,70,0.00,,,0.04,Wunderground v.1.15,2013-11-08 16:05:00,
2013-11-08 10:15:00,45.7,36.1,29.80,SW,228,7.0,-999.0,69,0.00,,,0.04,Wunderground v.1.15,2013-11-08 16:15:00,
2013-11-08 10:25:00,45.8,36.2,29.82,South,181,8.0,-999.0,69,0.00,,,0.04,Wunderground v.1.15,2013-11-08 16:25:00,
2013-11-08 10:35:00,47.0,37.0,29.80,South,181,6.0,-999.0,68,0.00,,,0.04,Wunderground v.1.15,2013-11-08 16:35:00,
2013-11-08 10:45:00,47.5,36.7,29.81,WSW,258,8.0,-999.0,66,0.00,,,0.04,Wunderground v.1.15,2013-11-08 16:45:00,
2013-11-08 10:50:00,47.9,37.1,29.80,SSW,204,7.0,-999.0,66,0.00,,,0.04,Wunderground v.1.15,2013-11-08 16:50:00,
2013-11-08 11:00:00,48.1,37.3,29.78,SW,221,8.0,-999.0,66,0.00,,,0.04,Wunderground v.1.15,2013-11-08 17:00:00,
2013-11-08 11:05:00,48.6,37.4,29.78,SW,231,8.0,-999.0,65,0.00,,,0.04,Wunderground v.1.15,2013-11-08 17:05:00,
2013-11-08 11:15:00,49.3,37.6,29.77,WSW,250,7.0,-999.0,64,0.00,,,0.04,Wunderground v.1.15,2013-11-08 17:15:00,
2013-11-08 11:25:00,49.7,38.0,29.77,SE,146,6.0,-999.0,64,0.00,,,0.04,Wunderground v.1.15,2013-11-08 17:25:00,
2013-11-08 11:35:00,50.1,37.6,29.75,SW,217,8.0,-999.0,62,0.00,,,0.04,Wunderground v.1.15,2013-11-08 17:35:00,
2013-11-08 11:45:00,50.6,37.2,29.74,SSE,158,8.0,-999.0,60,0.00,,,0.04,Wunderground v.1.15,2013-11-08 17:45:00,
2013-11-08 11:55:00,51.2,38.6,29.73,SW,214,7.0,-999.0,62,0.00,,,0.04,Wunderground v.1.15,2013-11-08 17:55:00,
2013-11-08 12:05:00,51.3,38.7,29.76,SW,219,6.0,-999.0,62,0.00,,,0.04,Wunderground v.1.15,2013-11-08 18:05:00,
2013-11-08 12:10:00,51.2,38.6,29.75,SSW,209,5.0,-999.0,62,0.00,,,0.04,Wunderground v.1.15,2013-11-08 18:10:00,
2013-11-08 12:20:00,51.4,38.8,29.75,SSW,195,5.0,-999.0,62,0.00,,,0.04,Wunderground v.1.15,2013-11-08 18:20:00,
2013-11-08 12:25:00,51.8,39.2,29.75,SW,218,4.0,-999.0,62,0.00,,,0.04,Wunderground v.1.15,2013-11-08 18:25:00,
2013-11-08 12:35:00,52.2,39.1,29.74,South,183,5.0,-999.0,61,0.00,,,0.04,Wunderground v.1.15,2013-11-08 18:35:00,
2013-11-08 12:45:00,52.6,39.1,29.73,SE,127,5.0,-999.0,60,0.00,,,0.04,Wunderground v.1.15,2013-11-08 18:45:00,
2013-11-08 12:55:00,53.4,39.4,29.72,SW,228,5.0,-999.0,59,0.00,,,0.04,Wunderground v.1.15,2013-11-08 18:55:00,
2013-11-08 13:05:00,54.4,40.4,29.72,SSW,198,3.0,-999.0,59,0.00,,,0.04,Wunderground v.1.15,2013-11-08 19:05:00,
2013-11-08 13:10:00,54.6,40.6,29.72,South,181,3.0,-999.0,59,0.00,,,0.04,Wunderground v.1.15,2013-11-08 19:10:00,
2013-11-08 13:20:00,55.0,40.0,29.72,SW,217,5.0,-999.0,57,0.00,,,0.04,Wunderground v.1.15,2013-11-08 19:20:00,
2013-11-08 13:25:00,55.3,39.9,29.72,SSW,209,5.0,-999.0,56,0.00,,,0.04,Wunderground v.1.15,2013-11-08 19:25:00,
2013-11-08 13:35:00,55.2,40.2,29.72,SSW,207,3.0,-999.0,57,0.00,,,0.04,Wunderground v.1.15,2013-11-08 19:35:00,
2013-11-08 13:45:00,55.0,39.6,29.72,South,179,3.0,-999.0,56,0.00,,,0.04,Wunderground v.1.15,2013-11-08 19:45:00,
2013-11-08 13:55:00,54.9,39.9,29.72,SW,235,4.0,-999.0,57,0.00,,,0.04,Wunderground v.1.15,2013-11-08 19:55:00,
2013-11-08 14:00:00,55.1,40.1,29.72,South,171,3.0,-999.0,57,0.00,,,0.04,Wunderground v.1.15,2013-11-08 20:00:00,
2013-11-08 14:05:00,55.1,40.1,29.72,WSW,255,3.0,-999.0,57,0.00,,,0.04,Wunderground v.1.15,2013-11-08 20:05:00,
2013-11-08 14:15:00,55.3,40.8,29.72,SSW,200,2.0,-999.0,58,0.00,,,0.04,Wunderground v.1.15,2013-11-08 20:15:00,
2013-11-08 14:20:00,55.3,40.3,29.71,WSW,238,3.0,-999.0,57,0.00,,,0.04,Wunderground v.1.15,2013-11-08 20:20:00,
2013-11-08 14:30:00,55.3,40.8,29.73,SW,221,2.0,-999.0,58,0.00,,,0.04,Wunderground v.1.15,2013-11-08 20:30:00,
2013-11-08 14:35:00,55.3,40.8,29.71,SW,219,2.0,-999.0,58,0.00,,,0.04,Wunderground v.1.15,2013-11-08 20:35:00,
2013-11-08 14:45:00,55.4,40.9,29.71,SW,218,1.0,-999.0,58,0.00,,,0.04,Wunderground v.1.15,2013-11-08 20:45:00,
2013-11-08 14:55:00,56.0,41.9,29.73,WSW,238,2.0,-999.0,59,0.00,,,0.04,Wunderground v.1.15,2013-11-08 20:55:00,
2013-11-08 15:05:00,57.0,41.9,29.74,WSW,238,1.0,-999.0,57,0.00,,,0.04,Wunderground v.1.15,2013-11-08 21:05:00,
2013-11-08 15:15:00,57.3,41.3,29.73,West,263,1.0,-999.0,55,0.00,,,0.04,Wunderground v.1.15,2013-11-08 21:15:00,
2013-11-08 15:20:00,57.5,41.4,29.73,WNW,285,1.0,-999.0,55,0.00,,,0.04,Wunderground v.1.15,2013-11-08 21:20:00,
2013-11-08 15:30:00,58.2,41.6,29.73,NW,304,1.0,-999.0,54,0.00,,,0.04,Wunderground v.1.15,2013-11-08 21:30:00,
2013-11-08 15:35:00,58.1,41.5,29.74,West,277,1.0,-999.0,54,0.00,,,0.04,Wunderground v.1.15,2013-11-08 21:35:00,
2013-11-08 15:45:00,57.9,41.8,29.74,WSW,250,1.0,-999.0,55,0.00,,,0.04,Wunderground v.1.15,2013-11-08 21:45:00,
2013-11-08 15:55:00,57.7,42.1,29.74,WNW,293,1.0,-999.0,56,0.00,,,0.04,Wunderground v.1.15,2013-11-08 21:55:00,
2013-11-08 16:05:00,57.6,41.5,29.76,West,276,3.0,-999.0,55,0.00,,,0.04,Wunderground v.1.15,2013-11-08 22:05:00,
2013-11-08 16:15:00,57.0,41.4,29.76,NW,310,2.0,-999.0,56,0.00,,,0.04,Wunderground v.1.15,2013-11-08 22:15:00,
2013-11-08 16:20:00,56.8,41.3,29.76,WNW,288,2.0,-999.0,56,0.00,,,0.04,Wunderground v.1.15,2013-11-08 22:20:00,
2013-11-08 16:30:00,56.2,42.1,29.77,WNW,295,2.0,-999.0,59,0.00,,,0.04,Wunderground v.1.15,2013-11-08 22:30:00,
2013-11-08 16:35:00,55.9,42.2,29.77,NW,309,2.0,-999.0,60,0.00,,,0.04,Wunderground v.1.15,2013-11-08 22:35:00,
2013-11-08 16:45:00,55.4,42.2,29.77,WNW,291,0.0,-999.0,61,0.00,,,0.04,Wunderground v.1.15,2013-11-08 22:45:00,
2013-11-08 16:55:00,55.0,42.2,29.77,WNW,290,0.0,-999.0,62,0.00,,,0.04,Wunderground v.1.15,2013-11-08 22:55:00,
2013-11-08 17:05:00,54.6,41.8,29.78,WNW,291,0.0,-999.0,62,0.00,,,0.04,Wunderground v.1.15,2013-11-08 23:05:00,
2013-11-08 17:15:00,54.1,41.8,29.79,WNW,291,0.0,-999.0,63,0.00,,,0.04,Wunderground v.1.15,2013-11-08 23:15:00,
2013-11-08 17:20:00,53.9,42.0,29.79,WNW,283,0.0,-999.0,64,0.00,,,0.04,Wunderground v.1.15,2013-11-08 23:20:00,
2013-11-08 17:30:00,53.3,41.8,29.80,WNW,283,0.0,-999.0,65,0.00,,,0.04,Wunderground v.1.15,2013-11-08 23:30:00,
2013-11-08 17:35:00,52.9,41.8,29.80,WNW,283,0.0,-999.0,66,0.00,,,0.04,Wunderground v.1.15,2013-11-08 23:35:00,
2013-11-08 17:45:00,52.4,41.8,29.81,WNW,291,0.0,-999.0,67,0.00,,,0.04,Wunderground v.1.15,2013-11-08 23:45:00,
2013-11-08 17:55:00,51.7,41.5,29.82,West,277,0.0,-999.0,68,0.00,,,0.04,Wunderground v.1.15,2013-11-08 23:55:00,
2013-11-08 18:05:00,50.9,41.1,29.83,West,274,0.0,-999.0,69,0.00,,,0.04,Wunderground v.1.15,2013-11-09 00:05:00,
2013-11-08 18:15:00,50.3,40.1,29.83,WNW,302,0.0,-999.0,68,0.00,,,0.04,Wunderground v.1.15,2013-11-09 00:15:00,
2013-11-08 18:25:00,50.4,38.7,29.83,NW,318,1.0,-999.0,64,0.00,,,0.04,Wunderground v.1.15,2013-11-09 00:25:00,
2013-11-08 18:30:00,50.3,38.2,29.83,NW,312,1.0,-999.0,63,0.00,,,0.04,Wunderground v.1.15,2013-11-09 00:30:00,
2013-11-08 18:40:00,49.7,37.6,29.84,NW,309,0.0,-999.0,63,0.00,,,0.04,Wunderground v.1.15,2013-11-09 00:40:00,
2013-11-08 18:45:00,49.4,37.3,29.84,NW,309,0.0,-999.0,63,0.00,,,0.04,Wunderground v.1.15,2013-11-09 00:45:00,
2013-11-08 18:55:00,48.1,37.3,29.85,NW,309,0.0,-999.0,66,0.00,,,0.04,Wunderground v.1.15,2013-11-09 00:55:00,
2013-11-08 19:05:00,46.6,37.3,29.85,NW,309,0.0,-999.0,70,0.00,,,0.04,Wunderground v.1.15,2013-11-09 01:05:00,
2013-11-08 19:15:00,45.1,37.0,29.85,NW,309,0.0,-999.0,73,0.00,,,0.04,Wunderground v.1.15,2013-11-09 01:15:00,
2013-11-08 19:25:00,43.9,36.5,29.86,NW,309,0.0,-999.0,75,0.00,,,0.04,Wunderground v.1.15,2013-11-09 01:25:00,
2013-11-08 19:30:00,43.2,36.1,29.86,NW,309,0.0,-999.0,76,0.00,,,0.04,Wunderground v.1.15,2013-11-09 01:30:00,
2013-11-08 19:40:00,42.3,36.3,29.86,NW,309,0.0,-999.0,79,0.00,,,0.04,Wunderground v.1.15,2013-11-09 01:40:00,
2013-11-08 19:45:00,42.4,36.0,29.87,West,262,0.0,-999.0,78,0.00,,,0.04,Wunderground v.1.15,2013-11-09 01:45:00,
2013-11-08 19:55:00,43.2,35.8,29.87,West,268,0.0,-999.0,75,0.00,,,0.04,Wunderground v.1.15,2013-11-09 01:55:00,
2013-11-08 20:05:00,43.7,35.6,29.88,NW,326,0.0,-999.0,73,0.00,,,0.04,Wunderground v.1.15,2013-11-09 02:05:00,
2013-11-08 20:15:00,45.3,35.4,29.88,NW,307,1.0,-999.0,68,0.00,,,0.04,Wunderground v.1.15,2013-11-09 02:15:00,
2013-11-08 20:25:00,45.2,34.9,29.88,WNW,292,0.0,-999.0,67,0.00,,,0.04,Wunderground v.1.15,2013-11-09 02:25:00,
2013-11-08 20:30:00,44.8,34.9,29.89,WNW,283,0.0,-999.0,68,0.00,,,0.04,Wunderground v.1.15,2013-11-09 02:30:00,
2013-11-08 20:40:00,44.2,34.7,29.89,WSW,253,0.0,-999.0,69,0.00,,,0.04,Wunderground v.1.15,2013-11-09 02:40:00,
2013-11-08 20:45:00,43.8,34.6,29.89,WSW,253,0.0,-999.0,70,0.00,,,0.04,Wunderground v.1.15,2013-11-09 02:45:00,
2013-11-08 20:55:00,43.0,34.2,29.89,WSW,253,0.0,-999.0,71,0.00,,,0.04,Wunderground v.1.15,2013-11-09 02:55:00,
2013-11-08 21:05:00,41.9,34.2,29.89,SW,226,0.0,-999.0,74,0.00,,,0.04,Wunderground v.1.15,2013-11-09 03:05:00,
2013-11-08 21:15:00,40.8,33.5,29.90,East,98,0.0,-999.0,75,0.00,,,0.04,Wunderground v.1.15,2013-11-09 03:15:00,
2013-11-08 21:25:00,39.7,33.4,29.90,East,98,0.0,-999.0,78,0.00,,,0.04,Wunderground v.1.15,2013-11-09 03:25:00,
2013-11-08 21:30:00,39.2,33.2,29.90,East,98,0.0,-999.0,79,0.00,,,0.04,Wunderground v.1.15,2013-11-09 03:30:00,
2013-11-08 21:40:00,38.5,33.2,29.91,East,100,0.0,-999.0,81,0.00,,,0.04,Wunderground v.1.15,2013-11-09 03:40:00,
2013-11-08 21:45:00,38.5,33.2,29.91,NNW,333,0.0,-999.0,81,0.00,,,0.04,Wunderground v.1.15,2013-11-09 03:45:00,
2013-11-08 21:55:00,39.4,33.7,29.91,WNW,293,0.0,-999.0,80,0.00,,,0.04,Wunderground v.1.15,2013-11-09 03:55:00,
2013-11-08 22:05:00,39.8,33.5,29.91,West,277,0.0,-999.0,78,0.00,,,0.04,Wunderground v.1.15,2013-11-09 04:05:00,
2013-11-08 22:15:00,39.2,33.2,29.91,West,277,0.0,-999.0,79,0.00,,,0.04,Wunderground v.1.15,2013-11-09 04:15:00,
2013-11-08 22:25:00,38.9,33.3,29.92,West,277,0.0,-999.0,80,0.00,,,0.04,Wunderground v.1.15,2013-11-09 04:25:00,
2013-11-08 22:30:00,39.3,33.3,29.92,West,280,0.0,-999.0,79,0.00,,,0.04,Wunderground v.1.15,2013-11-09 04:30:00,
2013-11-08 22:40:00,39.6,33.3,29.92,West,274,0.0,-999.0,78,0.00,,,0.04,Wunderground v.1.15,2013-11-09 04:40:00,
2013-11-08 22:45:00,39.7,33.1,29.93,West,275,0.0,-999.0,77,0.00,,,0.04,Wunderground v.1.15,2013-11-09 04:45:00,
2013-11-08 22:55:00,39.3,33.0,29.93,West,276,0.0,-999.0,78,0.00,,,0.04,Wunderground v.1.15,2013-11-09 04:55:00,
2013-11-08 23:05:00,39.2,32.9,29.93,WNW,295,0.0,-999.0,78,0.00,,,0.04,Wunderground v.1.15,2013-11-09 05:05:00,
2013-11-08 23:15:00,39.3,32.7,29.93,West,271,0.0,-999.0,77,0.00,,,0.04,Wunderground v.1.15,2013-11-09 05:15:00,
2013-11-08 23:20:00,39.6,33.0,29.93,West,271,0.0,-999.0,77,0.00,,,0.04,Wunderground v.1.15,2013-11-09 05:20:00,
2013-11-08 23:25:00,40.0,33.0,29.93,North,8,0.0,-999.0,76,0.00,,,0.04,Wunderground v.1.15,2013-11-09 05:25:00,
2013-11-08 23:30:00,40.5,33.2,29.93,NW,314,0.0,-999.0,75,0.00,,,0.04,Wunderground v.1.15,2013-11-09 05:30:00,
2013-11-08 23:35:00,40.9,33.2,29.93,WNW,298,0.0,-999.0,74,0.00,,,0.04,Wunderground v.1.15,2013-11-09 05:35:00,
2013-11-08 23:40:00,41.0,33.0,29.94,NW,311,0.0,-999.0,73,0.00,,,0.04,Wunderground v.1.15,2013-11-09 05:40:00,
2013-11-08 23:45:00,40.9,32.9,29.93,NW,316,1.0,-999.0,73,0.00,,,0.04,Wunderground v.1.15,2013-11-09 05:45:00,
2013-11-08 23:55:00,40.8,32.8,29.94,NW,307,1.0,-999.0,73,0.00,,,0.04,Wunderground v.1.15,2013-11-09 05:55:00,